Time;durP1;ratioP1;P1;durP2;ratioP2;P2;SDS_P1;SDS_P2;PMS_P1;PMS_P2;Temp;Humidity;BMP_temperature;BMP_pressure;BME280_temperature;BME280_humidity;BME280_pressure;Samples;Min_cycle;Max_cycle;Signal;HPM_P1;HPM_P2
2024/03/07 00:01:29;;;;;;;42.80;22.90;;;;;;;6.71;66.02;100990.41;6125443;22;97202;-80
2024/03/07 00:03:55;;;;;;;41.05;24.13;;;;;;;6.87;66.00;100991.19;6125884;22;96737;-81
2024/03/07 00:06:20;;;;;;;33.80;21.95;;;;;;;6.84;65.16;100989.47;6100850;22;97320;-80
2024/03/07 00:08:46;;;;;;;39.33;24.40;;;;;;;6.83;65.50;100989.47;6125052;22;97912;-80
2024/03/07 00:11:12;;;;;;;37.65;23.98;;;;;;;6.78;65.46;100986.91;6099440;22;96766;-80
2024/03/07 00:13:37;;;;;;;39.17;23.45;;;;;;;6.84;65.03;100983.38;6151687;22;96750;-84
2024/03/07 00:16:03;;;;;;;36.28;22.02;;;;;;;7.07;64.60;100977.94;6098693;22;98867;-81
2024/03/07 00:18:29;;;;;;;38.05;22.73;;;;;;;6.95;64.34;100991.97;6123702;22;97479;-81
2024/03/07 00:20:54;;;;;;;39.05;22.50;;;;;;;6.66;65.07;100992.19;6124010;22;97211;-83
2024/03/07 00:23:20;;;;;;;41.28;22.88;;;;;;;6.51;65.50;100973.16;6125403;22;96700;-81
2024/03/07 00:25:48;;;;;;;40.70;23.17;;;;;;;6.66;65.09;100989.59;6124010;22;97419;-81
2024/03/07 00:28:17;;;;;;;38.30;23.85;;;;;;;6.54;65.50;100988.81;6125136;22;97612;-81
2024/03/07 00:30:47;;;;;;;39.95;23.55;;;;;;;6.67;64.90;100981.75;6100336;22;96995;-81
2024/03/07 00:33:13;;;;;;;39.83;23.50;;;;;;;6.70;64.93;100991.31;6100868;22;96843;-80
2024/03/07 00:35:39;;;;;;;37.97;22.98;;;;;;;6.60;65.10;100990.50;6123931;22;100362;-83
2024/03/07 00:38:04;;;;;;;38.10;23.15;;;;;;;6.66;65.07;100979.16;6124272;22;100339;-81
2024/03/07 00:40:31;;;;;;;35.33;22.15;;;;;;;6.68;65.15;100990.44;6124208;22;97132;-81
2024/03/07 00:42:58;;;;;;;37.90;22.73;;;;;;;6.82;64.59;100979.91;6099883;22;97297;-80
2024/03/07 00:45:23;;;;;;;34.05;21.38;;;;;;;6.43;65.16;100971.47;6124838;22;97570;-81
2024/03/07 00:47:49;;;;;;;35.05;22.00;;;;;;;6.61;64.78;100988.78;6100720;22;100522;-81
2024/03/07 00:50:14;;;;;;;39.30;22.95;;;;;;;6.50;65.03;100979.25;6125298;22;97113;-81
2024/03/07 00:52:40;;;;;;;39.42;23.75;;;;;;;6.57;64.72;100988.78;6126004;22;96988;-81
2024/03/07 00:55:09;;;;;;;36.53;21.15;;;;;;;6.61;64.78;100994.00;6100483;22;99420;-81
2024/03/07 00:57:35;;;;;;;37.92;22.27;;;;;;;6.79;64.48;100978.19;6076852;22;100448;-80
2024/03/07 01:00:01;;;;;;;35.08;22.60;;;;;;;6.59;64.15;100970.50;6100155;22;96737;-82
2024/03/07 01:02:27;;;;;;;37.97;22.08;;;;;;;6.37;64.86;100985.44;6100372;22;96705;-81
2024/03/07 01:04:54;;;;;;;38.88;22.02;;;;;;;6.39;64.74;100977.59;6124119;22;97318;-81
2024/03/07 01:07:21;;;;;;;36.67;22.08;;;;;;;6.44;64.67;100984.53;6149788;22;98022;-80
2024/03/07 01:09:47;;;;;;;35.38;22.95;;;;;;;6.37;64.82;100979.34;6151063;22;96987;-80
2024/03/07 01:12:12;;;;;;;41.63;21.98;;;;;;;6.23;65.12;100987.28;6124987;22;96815;-81
2024/03/07 01:14:38;;;;;;;38.92;21.48;;;;;;;6.12;65.10;100959.50;6100169;22;100284;-81
2024/03/07 01:17:06;;;;;;;36.30;21.27;;;;;;;6.37;64.72;100977.63;6125122;22;97156;-79
2024/03/07 01:19:32;;;;;;;39.17;21.85;;;;;;;6.47;64.25;100974.06;6119205;23;97081;-81
2024/03/07 01:21:57;;;;;;;32.80;20.48;;;;;;;6.32;64.20;100966.34;6120718;23;96867;-83
2024/03/07 01:24:23;;;;;;;39.95;22.17;;;;;;;6.28;64.28;100978.56;6094997;23;100893;-81
2024/03/07 01:26:49;;;;;;;38.38;21.52;;;;;;;6.07;64.51;100966.47;6095390;23;100942;-81
2024/03/07 01:29:15;;;;;;;39.60;22.45;;;;;;;6.25;64.23;100980.28;6119785;23;96609;-81
2024/03/07 01:31:40;;;;;;;39.22;21.17;;;;;;;6.25;64.26;100965.50;6121935;22;96710;-80
2024/03/07 01:34:06;;;;;;;36.55;20.30;;;;;;;6.51;63.86;100978.38;6094927;23;97452;-80
2024/03/07 01:36:32;;;;;;;41.40;21.20;;;;;;;6.21;63.53;100989.00;6121235;22;97409;-80
2024/03/07 01:38:57;;;;;;;32.47;19.30;;;;;;;6.08;64.01;100955.19;6095427;23;96800;-80
2024/03/07 01:41:23;;;;;;;32.03;19.00;;;;;;;6.14;63.18;100969.94;6095155;23;96823;-84
2024/03/07 01:43:48;;;;;;;33.28;20.20;;;;;;;6.15;63.47;100978.63;6119996;23;96745;-80
2024/03/07 01:46:14;;;;;;;32.47;19.98;;;;;;;6.18;63.71;100984.69;6095306;23;97870;-81
2024/03/07 01:48:40;;;;;;;31.48;18.92;;;;;;;6.26;63.31;100977.69;6095312;23;97113;-80
2024/03/07 01:51:06;;;;;;;33.67;19.92;;;;;;;6.02;63.01;100968.25;6070193;23;97165;-81
2024/03/07 01:53:32;;;;;;;31.08;19.13;;;;;;;6.07;63.47;100969.09;6094470;23;100605;-81
2024/03/07 01:55:59;;;;;;;35.97;20.65;;;;;;;5.92;63.65;100983.91;6095078;23;97773;-81
2024/03/07 01:58:25;;;;;;;38.85;20.95;;;;;;;5.96;63.40;100978.69;6119288;23;97195;-83
2024/03/07 02:00:50;;;;;;;34.95;20.38;;;;;;;6.10;63.19;100979.50;6094421;23;97129;-81
2024/03/07 02:03:17;;;;;;;36.45;20.30;;;;;;;6.02;63.33;100988.22;6070526;23;100487;-81
2024/03/07 02:05:42;;;;;;;36.47;20.88;;;;;;;6.11;63.02;100969.97;6119492;23;97419;-81
2024/03/07 02:08:08;;;;;;;36.10;20.10;;;;;;;6.19;62.60;100981.19;6095106;23;97036;-82
2024/03/07 02:10:34;;;;;;;33.80;18.83;;;;;;;6.02;63.07;100981.31;6121683;22;97050;-82
2024/03/07 02:13:00;;;;;;;31.20;19.83;;;;;;;5.84;63.10;100981.31;6069273;23;100451;-81
2024/03/07 02:15:27;;;;;;;33.23;19.50;;;;;;;6.06;63.18;100979.53;6118533;23;97350;-81
2024/03/07 02:17:53;;;;;;;36.65;20.23;;;;;;;6.05;63.05;100991.72;6069888;23;97034;-81
2024/03/07 02:20:18;;;;;;;34.83;20.45;;;;;;;6.00;62.71;100976.97;6118569;23;97073;-81
2024/03/07 02:22:44;;;;;;;32.28;19.08;;;;;;;5.88;63.06;100972.66;6119750;23;97344;-81
2024/03/07 02:25:09;;;;;;;32.53;19.75;;;;;;;5.88;63.12;100977.84;6094728;23;97189;-81
2024/03/07 02:27:36;;;;;;;33.30;18.63;;;;;;;5.85;62.59;100976.13;6096323;23;96773;-81
2024/03/07 02:30:05;;;;;;;35.97;19.65;;;;;;;6.05;62.64;100978.69;6096136;23;96827;-81
2024/03/07 02:32:31;;;;;;;35.03;19.90;;;;;;;5.95;62.97;100970.91;6121136;23;97660;-81
2024/03/07 02:34:57;;;;;;;31.00;18.98;;;;;;;5.82;63.11;100976.13;6096711;23;97141;-81
2024/03/07 02:37:22;;;;;;;33.60;19.42;;;;;;;5.83;63.11;100990.03;6096548;23;96638;-81
2024/03/07 02:39:48;;;;;;;30.63;18.40;;;;;;;5.75;62.89;100971.81;6096462;23;97220;-83
2024/03/07 02:42:13;;;;;;;29.90;18.50;;;;;;;5.82;62.95;100980.50;6120176;23;97705;-82
2024/03/07 02:44:40;;;;;;;31.75;19.30;;;;;;;5.94;62.99;100985.69;6122312;23;97312;-81
2024/03/07 02:47:06;;;;;;;40.33;20.65;;;;;;;5.79;63.22;100985.69;6121122;23;97104;-81
2024/03/07 02:49:32;;;;;;;32.22;18.50;;;;;;;5.82;62.93;100989.16;6096025;23;96789;-81
2024/03/07 02:51:57;;;;;;;34.53;19.73;;;;;;;5.88;62.99;100985.66;6120812;23;97429;-81
2024/03/07 02:54:23;;;;;;;35.03;18.65;;;;;;;5.44;63.67;100977.13;6096061;23;99954;-81
2024/03/07 02:56:48;;;;;;;34.20;19.83;;;;;;;5.43;63.62;100979.72;6121223;23;97357;-81
2024/03/07 02:59:14;;;;;;;32.73;18.67;;;;;;;5.41;63.90;100987.56;6072488;23;97346;-81
2024/03/07 03:01:40;;;;;;;31.57;19.13;;;;;;;5.28;64.12;100974.56;6120253;23;98178;-81
2024/03/07 03:04:06;;;;;;;34.27;19.53;;;;;;;5.40;63.89;100974.53;6071559;23;100366;-81
2024/03/07 03:06:32;;;;;;;29.02;18.25;;;;;;;5.51;63.52;100983.19;6120243;23;97083;-81
2024/03/07 03:08:58;;;;;;;35.42;19.70;;;;;;;5.63;63.31;100993.56;6121224;23;96808;-81
2024/03/07 03:11:25;;;;;;;33.47;18.27;;;;;;;5.60;63.39;100988.34;6095149;23;97356;-81
2024/03/07 03:13:51;;;;;;;34.57;20.20;;;;;;;5.62;63.08;100977.94;6095897;23;97398;-81
2024/03/07 03:16:17;;;;;;;28.13;18.73;;;;;;;5.52;63.40;100992.72;6121388;23;96750;-81
2024/03/07 03:18:43;;;;;;;36.60;19.27;;;;;;;5.40;63.20;100990.16;6095892;23;97064;-80
2024/03/07 03:21:08;;;;;;;35.00;17.57;;;;;;;5.45;63.66;100997.09;6120745;23;98168;-82
2024/03/07 03:23:34;;;;;;;35.00;18.53;;;;;;;5.65;63.31;100991.81;6096071;23;100450;-81
2024/03/07 03:26:00;;;;;;;32.95;19.50;;;;;;;5.59;62.95;100997.06;6096579;23;96708;-81
2024/03/07 03:28:27;;;;;;;33.72;17.55;;;;;;;5.57;63.11;100997.94;6071676;23;96835;-81
2024/03/07 03:30:53;;;;;;;32.20;19.03;;;;;;;5.47;62.95;100984.06;6120215;23;97962;-81
2024/03/07 03:33:18;;;;;;;31.38;18.98;;;;;;;5.44;63.07;100994.50;6095735;23;100781;-81
2024/03/07 03:35:44;;;;;;;30.80;18.83;;;;;;;5.15;63.78;100998.00;6096313;23;96744;-81
2024/03/07 03:38:10;;;;;;;33.57;19.90;;;;;;;5.00;64.15;100998.00;6120009;23;97110;-82
2024/03/07 03:40:35;;;;;;;33.90;20.43;;;;;;;5.01;64.37;100981.53;6095590;23;97834;-81
2024/03/07 03:43:01;;;;;;;30.43;18.93;;;;;;;5.12;64.09;100992.81;6070943;23;100722;-82
2024/03/07 03:45:27;;;;;;;36.03;20.40;;;;;;;4.99;64.27;100994.53;6071569;23;96810;-82
2024/03/07 03:47:53;;;;;;;30.27;19.27;;;;;;;5.08;64.07;100996.25;6120968;23;96719;-82
2024/03/07 03:50:18;;;;;;;41.17;20.97;;;;;;;4.94;64.34;100988.47;6095657;23;97981;-82
2024/03/07 03:52:44;;;;;;;40.30;20.13;;;;;;;4.72;64.63;100977.19;6118095;23;97193;-81
2024/03/07 03:55:11;;;;;;;35.43;18.80;;;;;;;4.63;64.80;100982.41;6120607;23;97182;-82
2024/03/07 03:57:39;;;;;;;40.33;19.37;;;;;;;4.81;64.60;101002.34;6120665;23;96721;-81
2024/03/07 04:00:12;;;;;;;39.97;19.97;;;;;;;4.64;65.11;100991.94;6120487;23;97913;-82
2024/03/07 04:02:41;;;;;;;34.10;18.90;;;;;;;4.72;65.20;100990.22;6096746;23;97234;-81
2024/03/07 04:05:09;;;;;;;37.00;20.43;;;;;;;4.69;64.96;100999.75;6071396;23;96735;-81
2024/03/07 04:07:35;;;;;;;32.43;19.40;;;;;;;4.54;65.44;100991.06;6095847;23;97121;-82
2024/03/07 04:10:03;;;;;;;33.17;19.67;;;;;;;4.48;65.51;100998.84;6120396;23;97464;-81
2024/03/07 04:12:29;;;;;;;37.23;20.10;;;;;;;4.45;65.63;100998.84;6096442;23;97440;-83
2024/03/07 04:14:55;;;;;;;34.77;20.37;;;;;;;4.38;65.88;100994.50;6096000;23;96974;-84
2024/03/07 04:17:21;;;;;;;37.10;20.00;;;;;;;4.43;65.91;100997.13;6071569;23;96735;-82
2024/03/07 04:19:47;;;;;;;31.63;19.07;;;;;;;4.46;65.61;100995.38;6093741;23;97588;-84
2024/03/07 04:22:12;;;;;;;43.17;20.80;;;;;;;4.55;65.40;100999.72;6095805;23;97238;-83
2024/03/07 04:24:38;;;;;;;33.70;20.23;;;;;;;4.54;65.49;100993.66;6120719;23;96700;-82
2024/03/07 04:27:04;;;;;;;37.30;20.70;;;;;;;4.62;65.48;101011.00;6120837;23;97295;-83
2024/03/07 04:29:33;;;;;;;36.13;20.60;;;;;;;4.60;65.71;101011.00;6095291;23;100157;-82
2024/03/07 04:32:03;;;;;;;34.30;20.20;;;;;;;4.36;66.05;101005.75;6095695;23;100187;-81
2024/03/07 04:34:32;;;;;;;37.17;20.67;;;;;;;4.32;66.50;101005.75;6120971;23;97279;-82
2024/03/07 04:36:58;;;;;;;41.43;21.70;;;;;;;4.30;66.69;101020.50;6120666;23;96800;-82
2024/03/07 04:39:32;;;;;;;36.00;21.13;;;;;;;4.34;66.85;101010.97;6094809;23;100795;-82
2024/03/07 04:42:08;;;;;;;34.20;19.93;;;;;;;4.47;66.37;101015.31;6072524;23;100329;-82
2024/03/07 04:44:39;;;;;;;33.93;19.93;;;;;;;4.51;66.23;101009.25;6120115;23;97186;-82
2024/03/07 04:47:04;;;;;;;32.80;18.90;;;;;;;4.56;66.28;101004.06;6096630;23;96683;-82
2024/03/07 04:49:32;;;;;;;33.27;21.43;;;;;;;4.48;66.37;101008.38;6095075;23;97201;-85
2024/03/07 04:51:58;;;;;;;38.60;21.53;;;;;;;4.47;66.21;101023.09;6120538;23;98059;-81
2024/03/07 04:54:25;;;;;;;37.07;21.57;;;;;;;4.48;66.54;101021.38;6120361;23;97277;-83
2024/03/07 04:56:52;;;;;;;35.07;21.00;;;;;;;4.61;66.23;101022.28;6095953;23;96777;-82
2024/03/07 04:59:18;;;;;;;41.17;21.23;;;;;;;4.52;66.24;101028.31;6120132;23;97383;-81
2024/03/07 05:01:45;;;;;;;29.37;19.97;;;;;;;4.52;66.09;101030.94;6120975;23;98441;-84
2024/03/07 05:04:12;;;;;;;36.47;20.20;;;;;;;4.65;65.89;101027.47;6095575;23;96743;-82
2024/03/07 05:06:38;;;;;;;37.77;20.70;;;;;;;4.66;65.81;101018.81;6120361;23;96866;-82
2024/03/07 05:09:04;;;;;;;34.70;20.23;;;;;;;4.61;65.99;101028.34;6119446;23;97431;-81
2024/03/07 05:11:30;;;;;;;39.53;19.70;;;;;;;4.67;65.78;101015.34;6095690;23;97301;-82
2024/03/07 05:13:57;;;;;;;43.40;20.63;;;;;;;4.77;65.89;101031.84;6095611;23;96597;-82
2024/03/07 05:16:29;;;;;;;33.27;18.87;;;;;;;4.72;65.87;101037.03;6095537;23;96820;-84
2024/03/07 05:18:58;;;;;;;;;;;;;;;4.78;65.62;101036.16;6100392;22;98571;-82
2024/03/07 05:21:56;;;;;;;39.33;20.33;;;;;;;4.80;65.66;101023.16;6100132;22;100578;-81
2024/03/07 05:24:15;;;;;;;37.00;18.92;;;;;;;4.74;65.36;101029.22;6125978;22;96853;-83
2024/03/07 05:26:40;;;;;;;35.57;19.83;;;;;;;4.53;65.84;101030.91;6151383;22;96700;-82
2024/03/07 05:29:08;;;;;;;36.13;20.37;;;;;;;4.59;65.54;101050.00;6149852;22;97310;-78
2024/03/07 05:31:38;;;;;;;34.23;21.10;;;;;;;4.47;65.81;101038.69;6121622;22;97480;-83
2024/03/07 05:34:08;;;;;;;35.07;18.97;;;;;;;4.66;65.40;101049.16;6122588;22;96655;-82
2024/03/07 05:36:34;;;;;;;35.50;20.80;;;;;;;4.57;65.54;101046.53;6123565;22;96820;-82
2024/03/07 05:39:02;;;;;;;38.97;20.53;;;;;;;4.48;65.71;101052.56;6072460;22;100662;-79
2024/03/07 05:41:29;;;;;;;37.37;19.43;;;;;;;4.65;65.53;101056.06;6097201;22;100273;-79
2024/03/07 05:43:55;;;;;;;41.97;20.03;;;;;;;4.62;65.53;101057.81;6123522;22;96655;-81
2024/03/07 05:46:22;;;;;;;29.13;19.20;;;;;;;4.54;65.63;101044.81;6098874;22;97176;-81
2024/03/07 05:48:51;;;;;;;33.67;19.60;;;;;;;4.44;65.53;101049.09;6124567;22;96713;-81
2024/03/07 05:51:18;;;;;;;33.50;19.03;;;;;;;4.68;64.91;101048.31;6124029;22;97861;-82
2024/03/07 05:53:43;;;;;;;33.03;19.80;;;;;;;4.66;64.88;101047.44;6124140;22;97075;-81
2024/03/07 05:56:09;;;;;;;32.23;18.87;;;;;;;4.50;64.87;101050.84;6150179;22;96728;-82
2024/03/07 05:58:35;;;;;;;35.80;19.50;;;;;;;4.57;64.92;101067.31;6149519;22;97543;-83
2024/03/07 06:01:00;;;;;;;37.90;19.37;;;;;;;4.45;64.37;101063.84;6076109;22;100473;-81
2024/03/07 06:03:26;;;;;;;39.07;19.80;;;;;;;4.48;64.60;101066.47;6102072;22;96653;-87
2024/03/07 06:05:53;;;;;;;31.77;19.50;;;;;;;4.53;64.10;101050.84;6125194;22;97188;-78
2024/03/07 06:08:18;;;;;;;32.73;19.83;;;;;;;4.41;63.54;101064.69;6124611;22;97909;-79
2024/03/07 06:10:44;;;;;;;37.73;19.90;;;;;;;4.18;63.62;101068.94;6125213;22;97451;-76
2024/03/07 06:13:11;;;;;;;32.70;19.10;;;;;;;4.39;63.59;101061.19;6125377;22;97053;-86
2024/03/07 06:15:40;;;;;;;29.60;18.30;;;;;;;4.29;63.60;101043.84;6126072;22;97113;-85
2024/03/07 06:18:08;;;;;;;35.60;19.47;;;;;;;4.47;61.83;101077.69;6122846;22;100224;-86
2024/03/07 06:20:34;;;;;;;37.33;18.43;;;;;;;4.46;61.92;101065.56;6123948;22;97564;-87
2024/03/07 06:23:04;;;;;;;33.17;18.83;;;;;;;4.43;61.60;101064.72;6072121;22;96746;-86
2024/03/07 06:25:37;;;;;;;32.63;18.33;;;;;;;4.40;61.84;101078.56;6101283;22;96689;-87
2024/03/07 06:28:09;;;;;;;33.77;18.77;;;;;;;4.48;60.85;101089.84;6102288;22;100162;-86
2024/03/07 06:30:36;;;;;;;28.83;18.03;;;;;;;4.37;60.44;101075.09;6101897;22;100483;-86
2024/03/07 06:33:02;;;;;;;29.33;16.97;;;;;;;4.37;60.70;101088.09;6075282;22;96733;-84
2024/03/07 06:35:28;;;;;;;26.93;17.17;;;;;;;4.28;59.99;101079.38;6095732;22;97095;-81
2024/03/07 06:37:53;;;;;;;32.37;16.90;;;;;;;4.68;59.77;101091.63;6122457;22;97364;-82
2024/03/07 06:40:22;;;;;;;30.30;17.17;;;;;;;4.70;59.19;101077.75;6123927;22;97249;-81
2024/03/07 06:42:48;;;;;;;25.13;17.03;;;;;;;4.64;58.48;101090.75;6125377;22;96694;-82
2024/03/07 06:45:14;;;;;;;25.90;16.73;;;;;;;4.50;58.20;101087.25;6099473;22;96954;-83
2024/03/07 06:47:39;;;;;;;35.13;17.50;;;;;;;4.63;58.21;101101.16;6123321;22;97283;-82
2024/03/07 06:50:08;;;;;;;29.33;17.17;;;;;;;4.65;57.88;101089.03;6123959;22;97434;-84
2024/03/07 06:52:34;;;;;;;25.77;16.20;;;;;;;4.76;57.75;101093.38;6099940;22;96756;-82
2024/03/07 06:54:59;;;;;;;26.40;17.10;;;;;;;4.63;57.59;101101.16;6099313;22;97567;-81
2024/03/07 06:57:25;;;;;;;28.87;16.37;;;;;;;4.54;57.70;101110.69;6099365;22;97939;-84
2024/03/07 06:59:51;;;;;;;33.60;17.53;;;;;;;4.46;58.01;101103.72;6124251;22;97795;-82
2024/03/07 07:02:16;;;;;;;28.27;16.43;;;;;;;4.48;57.80;101105.47;6124740;22;96738;-81
2024/03/07 07:04:42;;;;;;;33.97;18.60;;;;;;;4.53;57.52;101100.25;6151500;22;96803;-83
2024/03/07 07:07:10;;;;;;;25.33;16.30;;;;;;;4.57;57.33;101116.72;6151707;22;97432;-81
2024/03/07 07:09:36;;;;;;;25.57;17.60;;;;;;;4.43;57.68;101103.69;6099123;22;100326;-84
2024/03/07 07:12:05;;;;;;;29.57;17.20;;;;;;;4.40;57.92;101107.16;6124501;22;97217;-85
2024/03/07 07:14:30;;;;;;;25.63;16.10;;;;;;;4.62;57.73;101110.69;6121282;22;97019;-83
2024/03/07 07:16:56;;;;;;;26.20;16.23;;;;;;;4.65;57.36;101104.63;6095556;22;100238;-83
2024/03/07 07:19:22;;;;;;;34.77;17.80;;;;;;;4.49;57.59;101114.97;6121025;22;100342;-84
2024/03/07 07:21:53;;;;;;;30.53;18.27;;;;;;;4.41;57.56;101108.88;6097619;22;96754;-84
2024/03/07 07:24:21;;;;;;;29.98;17.30;;;;;;;4.48;57.54;101105.47;6125759;22;96631;-85
2024/03/07 07:26:47;;;;;;;30.00;17.70;;;;;;;4.61;57.38;101115.91;6098552;22;100634;-84
2024/03/07 07:29:13;;;;;;;24.80;17.13;;;;;;;4.84;57.37;101116.81;6098256;22;100454;-84
2024/03/07 07:31:38;;;;;;;29.63;16.83;;;;;;;4.98;56.70;101122.06;6121980;22;96925;-85
2024/03/07 07:34:04;;;;;;;26.00;16.90;;;;;;;5.19;56.13;101110.78;6122388;22;97017;-84
2024/03/07 07:36:30;;;;;;;32.20;17.50;;;;;;;5.09;56.42;101109.03;6072583;22;100546;-84
2024/03/07 07:38:56;;;;;;;28.53;15.50;;;;;;;4.85;56.02;101099.47;6098265;22;100748;-83
2024/03/07 07:41:21;;;;;;;31.63;17.20;;;;;;;5.00;56.18;101120.31;6124013;22;97128;-83
2024/03/07 07:43:47;;;;;;;31.57;18.27;;;;;;;5.03;55.79;101083.88;6099738;22;96751;-84
2024/03/07 07:46:15;;;;;;;25.73;16.37;;;;;;;5.20;55.91;101108.19;6098832;22;97330;-85
2024/03/07 07:48:42;;;;;;;28.33;17.13;;;;;;;5.48;54.82;101112.53;6099499;22;100792;-84
2024/03/07 07:51:07;;;;;;;25.03;16.40;;;;;;;5.46;54.69;101112.53;6097826;22;97436;-85
2024/03/07 07:53:34;;;;;;;32.17;16.70;;;;;;;5.10;55.39;101116.88;6100126;22;97269;-83
2024/03/07 07:55:59;;;;;;;27.57;17.17;;;;;;;4.96;55.69;101109.03;6122545;22;97611;-84
2024/03/07 07:58:25;;;;;;;27.87;17.40;;;;;;;5.02;55.14;101100.38;6123935;22;97512;-82
2024/03/07 08:00:50;;;;;;;25.87;17.23;;;;;;;5.20;56.02;101109.91;6123299;22;96666;-82
2024/03/07 08:03:17;;;;;;;25.27;16.90;;;;;;;5.21;55.50;101112.53;6150760;22;96958;-85
2024/03/07 08:05:44;;;;;;;35.43;18.87;;;;;;;5.01;54.99;101122.06;6095161;22;100332;-87
2024/03/07 08:08:16;;;;;;;30.93;17.07;;;;;;;5.08;55.33;101104.72;6123204;22;97440;-83
2024/03/07 08:10:42;;;;;;;25.85;17.48;;;;;;;5.21;55.11;101107.31;6120782;22;96669;-83
2024/03/07 08:13:08;;;;;;;27.20;16.13;;;;;;;5.19;54.91;101116.00;6097592;22;97305;-81
2024/03/07 08:15:34;;;;;;;27.47;16.03;;;;;;;5.19;53.30;101123.81;6120786;22;97862;-82
2024/03/07 08:18:00;;;;;;;27.07;15.63;;;;;;;5.31;53.22;101110.78;6098676;22;100257;-82
2024/03/07 08:20:26;;;;;;;27.03;16.43;;;;;;;5.10;53.08;101116.88;6097555;22;97828;-84
2024/03/07 08:22:53;;;;;;;29.43;16.60;;;;;;;4.98;52.56;101091.69;6098968;22;96800;-85
2024/03/07 08:25:24;;;;;;;24.37;15.87;;;;;;;5.21;52.01;101125.56;6097307;22;100591;-83
2024/03/07 08:27:51;;;;;;;24.27;15.77;;;;;;;5.30;52.05;101129.03;6122874;22;100334;-83
2024/03/07 08:30:17;;;;;;;22.83;15.77;;;;;;;5.49;51.94;101119.47;6123708;22;96688;-83
2024/03/07 08:32:47;;;;;;;28.90;15.77;;;;;;;5.64;51.74;101120.34;6150769;22;96791;-82
2024/03/07 08:35:13;;;;;;;25.20;16.13;;;;;;;5.58;51.27;101107.28;6098615;22;101124;-82
2024/03/07 08:37:40;;;;;;;23.53;15.87;;;;;;;5.85;51.23;101119.44;6122808;22;97317;-82
2024/03/07 08:40:06;;;;;;;30.37;17.33;;;;;;;5.87;51.40;101109.00;6099386;22;97347;-85
2024/03/07 08:42:41;;;;;;;28.07;16.70;;;;;;;5.56;51.07;101103.84;6099996;22;96736;-82
2024/03/07 08:45:10;;;;;;;27.73;16.48;;;;;;;5.44;50.85;101096.91;6098579;22;100191;-83
2024/03/07 08:47:37;;;;;;;25.42;16.60;;;;;;;5.40;51.37;101108.19;6124039;22;98076;-86
2024/03/07 08:50:08;;;;;;;31.57;16.60;;;;;;;5.36;51.94;101096.03;6122703;22;96656;-82
2024/03/07 08:52:37;;;;;;;21.25;14.52;;;;;;;5.52;49.87;101119.47;6151364;22;97061;-81
2024/03/07 08:55:03;;;;;;;28.37;17.47;;;;;;;5.31;49.16;101109.94;6075586;22;100870;-81
2024/03/07 08:57:30;;;;;;;25.20;15.17;;;;;;;5.49;49.89;101119.47;6098879;22;98466;-85
2024/03/07 08:59:56;;;;;;;24.73;14.60;;;;;;;5.57;49.15;101117.72;6151132;22;97134;-84
2024/03/07 09:02:21;;;;;;;29.27;15.47;;;;;;;5.23;48.79;101112.53;6124264;22;96820;-85
2024/03/07 09:04:47;;;;;;;26.33;15.30;;;;;;;5.27;49.42;101124.69;6123226;22;97337;-85
2024/03/07 09:07:14;;;;;;;30.60;18.00;;;;;;;5.14;49.55;101107.31;6150191;22;97349;-86
2024/03/07 09:09:45;;;;;;;26.33;16.47;;;;;;;5.22;49.76;101121.22;6123905;22;97175;-85
2024/03/07 09:12:11;;;;;;;25.65;15.82;;;;;;;5.19;50.05;101121.22;6093438;22;97265;-85
2024/03/07 09:14:37;;;;;;;24.73;16.40;;;;;;;5.12;49.97;101099.53;6091263;22;100191;-86
2024/03/07 09:17:04;;;;;;;26.00;16.97;;;;;;;5.22;49.85;101113.41;6066367;22;100813;-85
2024/03/07 09:19:31;;;;;;;25.83;15.57;;;;;;;5.16;50.16;101113.41;6116126;22;97238;-86
2024/03/07 09:21:56;;;;;;;26.93;17.83;;;;;;;5.20;50.13;101117.72;6115577;22;97455;-85
2024/03/07 09:24:22;;;;;;;25.57;16.83;;;;;;;5.13;50.32;101116.88;6116209;22;97604;-85
2024/03/07 09:26:56;;;;;;;35.40;17.97;;;;;;;5.51;50.15;101109.94;6090166;22;99960;-87
2024/03/07 09:29:22;;;;;;;26.80;16.17;;;;;;;5.45;49.91;101116.88;6093810;22;97276;-87
2024/03/07 09:31:53;;;;;;;27.33;16.03;;;;;;;5.37;50.15;101104.72;6115808;22;97450;-84
2024/03/07 09:34:20;;;;;;;25.02;17.65;;;;;;;5.20;50.19;101115.97;6115046;22;97870;-84
2024/03/07 09:36:49;;;;;;;29.70;18.53;;;;;;;4.89;50.75;101116.84;6111417;22;97510;-86
2024/03/07 09:39:15;;;;;;;30.30;17.67;;;;;;;4.99;50.91;101126.38;6117702;22;97129;-85
2024/03/07 09:41:41;;;;;;;30.17;17.73;;;;;;;5.06;51.32;101119.44;6090348;22;97338;-86
2024/03/07 09:44:12;;;;;;;28.40;17.37;;;;;;;5.30;51.55;101123.81;6117036;22;97465;-86
2024/03/07 09:46:38;;;;;;;29.83;17.63;;;;;;;5.41;51.25;101120.34;6093050;22;98683;-86
2024/03/07 09:49:05;;;;;;;28.80;18.47;;;;;;;5.44;50.44;101122.97;6117152;22;97154;-84
2024/03/07 09:51:31;;;;;;;33.40;18.30;;;;;;;5.30;50.66;101131.63;6114702;22;97180;-87
2024/03/07 09:54:00;;;;;;;28.13;19.50;;;;;;;5.04;50.91;101127.28;6092407;22;100424;-86
2024/03/07 09:56:30;;;;;;;28.43;17.60;;;;;;;5.21;51.58;101122.94;6117628;22;97328;-86
2024/03/07 09:58:57;;;;;;;28.73;17.70;;;;;;;5.48;51.40;101131.63;6092361;22;97348;-85
2024/03/07 10:01:26;;;;;;;25.50;17.47;;;;;;;5.63;50.55;101130.75;6091834;22;97152;-85
2024/03/07 10:03:58;;;;;;;31.07;17.17;;;;;;;7.51;47.33;101107.28;6092290;22;100799;-85
2024/03/07 10:06:23;;;;;;;28.48;18.13;;;;;;;8.47;45.60;101121.94;6115791;22;97363;-84
2024/03/07 10:08:51;;;;;;;28.75;17.40;;;;;;;8.64;45.06;101102.53;6117920;22;97497;-86
2024/03/07 10:11:16;;;;;;;25.23;17.00;;;;;;;8.63;44.94;101104.28;6116600;22;97297;-85
2024/03/07 10:13:42;;;;;;;24.05;17.00;;;;;;;8.65;44.42;101109.50;6092234;22;97895;-84
2024/03/07 10:16:08;;;;;;;24.75;17.17;;;;;;;8.36;45.08;101108.97;6116080;22;97889;-87
2024/03/07 10:18:41;;;;;;;29.58;17.45;;;;;;;8.21;44.88;101111.78;6093591;22;96827;-85
2024/03/07 10:21:07;;;;;;;24.25;16.02;;;;;;;7.76;45.79;101102.66;6092230;22;97044;-86
2024/03/07 10:23:33;;;;;;;26.35;16.73;;;;;;;7.49;45.50;101108.13;6142136;22;97402;-86
2024/03/07 10:25:59;;;;;;;29.40;16.30;;;;;;;7.50;45.43;101098.53;6117200;22;97392;-87
2024/03/07 10:28:30;;;;;;;25.70;16.88;;;;;;;7.26;46.13;101112.69;6117258;22;97500;-86
2024/03/07 10:30:56;;;;;;;30.63;17.38;;;;;;;7.33;46.90;101106.56;6115962;22;97406;-85
2024/03/07 10:33:27;;;;;;;24.50;16.88;;;;;;;7.29;46.94;101123.09;6143176;22;97666;-86
2024/03/07 10:35:52;;;;;;;29.33;16.77;;;;;;;7.33;46.55;101117.00;6067998;22;100545;-86
2024/03/07 10:38:18;;;;;;;27.02;17.45;;;;;;;7.09;46.83;101088.44;6116695;22;97428;-84
2024/03/07 10:40:47;;;;;;;30.38;18.98;;;;;;;7.05;47.40;101103.28;6092817;22;97260;-86
2024/03/07 10:43:14;;;;;;;23.63;16.80;;;;;;;7.01;47.69;101098.94;6089511;22;100302;-86
2024/03/07 10:45:48;;;;;;;29.77;17.65;;;;;;;7.02;47.78;101109.38;6115329;22;98306;-84
2024/03/07 10:48:16;;;;;;;26.38;17.35;;;;;;;7.02;47.92;101103.31;6116393;22;96669;-88
2024/03/07 10:50:47;;;;;;;29.77;17.90;;;;;;;6.80;48.53;101110.38;6067832;22;97502;-85
2024/03/07 10:53:15;;;;;;;29.00;17.08;;;;;;;6.68;48.25;101111.31;6115232;22;100682;-86
2024/03/07 10:55:51;;;;;;;26.08;16.50;;;;;;;6.42;48.24;101097.56;6114279;22;97885;-85
2024/03/07 10:58:38;;;;;;;33.65;18.05;;;;;;;6.46;48.26;101104.50;6094115;22;97205;-85
2024/03/07 11:01:05;;;;;;;25.05;16.90;;;;;;;6.61;48.41;101114.00;6093679;22;97281;-87
2024/03/07 11:03:37;;;;;;;24.08;16.38;;;;;;;6.50;48.53;101101.84;6092383;22;98127;-84
2024/03/07 11:06:06;;;;;;;27.70;16.45;;;;;;;6.53;48.79;101112.28;6090759;22;101192;-85
2024/03/07 11:08:35;;;;;;;25.45;16.63;;;;;;;6.53;49.01;101095.75;6118692;22;97359;-85
2024/03/07 11:11:01;;;;;;;24.13;16.67;;;;;;;6.91;48.55;101103.38;6072730;22;96828;-85
2024/03/07 11:13:28;;;;;;;26.48;15.52;;;;;;;6.88;48.28;101108.59;6095022;22;100362;-84
2024/03/07 11:15:57;;;;;;;28.45;17.27;;;;;;;6.68;48.98;101108.72;6094682;22;97897;-85